createdAt,value
2023-03-29T00:01:35.075Z,1.49
2023-03-29T00:04:08.220Z,1.52
2023-03-29T00:06:41.929Z,1.59
2023-03-29T00:09:13.786Z,1.61
2023-03-29T00:11:45.326Z,1.62
2023-03-29T00:14:17.255Z,1.66
2023-03-29T00:16:48.895Z,1.66
2023-03-29T00:19:20.516Z,1.66
2023-03-29T00:21:52.021Z,1.64
2023-03-29T00:24:23.889Z,1.65
2023-03-29T00:26:55.443Z,1.65
2023-03-29T00:29:27.178Z,1.65
2023-03-29T00:31:58.755Z,1.68
2023-03-29T00:34:31.199Z,1.61
2023-03-29T00:37:02.724Z,1.59
2023-03-29T00:39:34.581Z,1.61
2023-03-29T00:42:06.125Z,1.62
2023-03-29T00:44:37.848Z,1.66
2023-03-29T00:47:09.382Z,1.69
2023-03-29T00:49:41.933Z,1.65
2023-03-29T00:52:13.451Z,1.70
2023-03-29T00:54:45.205Z,1.72
2023-03-29T00:57:16.842Z,1.78
2023-03-29T00:59:48.723Z,1.79
2023-03-29T01:02:22.081Z,1.81
2023-03-29T01:04:53.997Z,1.85
2023-03-29T01:07:25.490Z,1.92
2023-03-29T01:09:57.287Z,1.98
2023-03-29T01:12:28.895Z,2.02
2023-03-29T01:15:00.512Z,2.05
2023-03-29T01:17:33.195Z,2.11
2023-03-29T01:20:10.957Z,2.15
2023-03-29T01:22:42.799Z,2.19
2023-03-29T01:25:14.299Z,2.19
2023-03-29T01:27:46.031Z,2.16
2023-03-29T01:30:17.549Z,2.14
2023-03-29T01:32:50.802Z,2.15
2023-03-29T01:35:22.397Z,2.15
2023-03-29T01:37:56.680Z,2.16
2023-03-29T01:40:28.304Z,2.12
2023-03-29T01:43:00.035Z,-0.43
2023-03-29T01:45:31.543Z,2.06
2023-03-29T01:48:03.788Z,2.02
2023-03-29T01:50:35.432Z,2.00
2023-03-29T01:53:06.995Z,1.96
2023-03-29T01:55:38.540Z,1.96
2023-03-29T01:58:10.393Z,1.95
2023-03-29T02:00:42.169Z,1.93
2023-03-29T02:03:15.210Z,1.87
2023-03-29T02:05:46.826Z,1.86
2023-03-29T02:08:18.616Z,1.86
2023-03-29T02:10:50.327Z,1.88
2023-03-29T02:13:22.582Z,1.91
2023-03-29T02:15:54.609Z,1.89
2023-03-29T02:18:26.586Z,1.92
2023-03-29T02:20:58.898Z,1.92
2023-03-29T02:23:30.621Z,1.92
2023-03-29T02:26:02.183Z,1.92
2023-03-29T02:28:34.122Z,1.90
2023-03-29T02:31:05.726Z,1.90
2023-03-29T02:33:37.634Z,1.90
2023-03-29T02:36:10.285Z,1.86
2023-03-29T02:38:42.310Z,1.85
2023-03-29T02:41:13.803Z,1.84
2023-03-29T02:43:46.131Z,1.79
2023-03-29T02:46:17.724Z,1.73
2023-03-29T02:48:49.260Z,1.71
2023-03-29T02:51:20.875Z,1.66
2023-03-29T02:53:52.402Z,1.67
2023-03-29T02:56:23.931Z,1.65
2023-03-29T02:58:55.486Z,1.64
2023-03-29T03:01:27.026Z,1.63
2023-03-29T03:03:58.637Z,1.60
2023-03-29T03:06:30.165Z,1.58
2023-03-29T03:09:02.395Z,1.56
2023-03-29T03:11:33.950Z,1.59
2023-03-29T03:14:07.156Z,1.55
2023-03-29T03:16:38.844Z,1.52
2023-03-29T03:19:10.473Z,1.50
2023-03-29T03:21:42.010Z,1.49
2023-03-29T03:24:13.863Z,1.49
2023-03-29T03:26:46.347Z,1.47
2023-03-29T03:29:18.223Z,1.45
2023-03-29T03:31:51.280Z,1.41
2023-03-29T03:34:24.103Z,1.41
2023-03-29T03:36:55.661Z,1.42
2023-03-29T03:39:27.632Z,1.42
2023-03-29T03:41:59.170Z,1.42
2023-03-29T03:44:31.327Z,1.37
2023-03-29T03:47:02.834Z,1.38
2023-03-29T03:49:34.751Z,1.35
2023-03-29T03:52:06.513Z,1.37
2023-03-29T03:54:38.122Z,1.31
2023-03-29T03:57:09.741Z,1.36
2023-03-29T03:59:41.677Z,1.33
2023-03-29T04:02:13.234Z,1.33
2023-03-29T04:04:45.120Z,1.34
2023-03-29T04:07:17.804Z,1.30
2023-03-29T04:09:49.967Z,1.33
2023-03-29T04:12:21.503Z,1.31
2023-03-29T04:14:53.431Z,1.28
2023-03-29T04:17:24.984Z,1.27
2023-03-29T04:19:57.525Z,1.25
2023-03-29T04:22:29.321Z,1.25
2023-03-29T04:25:01.063Z,1.22
2023-03-29T04:27:32.561Z,1.19
2023-03-29T04:30:04.108Z,1.20
2023-03-29T04:32:35.802Z,1.25
2023-03-29T04:35:08.348Z,1.23
2023-03-29T04:37:40.452Z,1.28
2023-03-29T04:40:14.533Z,1.27
2023-03-29T04:42:47.226Z,1.29
2023-03-29T04:45:19.252Z,1.30
2023-03-29T04:47:50.879Z,1.29
2023-03-29T04:50:22.534Z,1.24
2023-03-29T04:52:54.056Z,1.19
2023-03-29T04:55:26.175Z,1.20
2023-03-29T04:57:58.165Z,1.21
2023-03-29T05:00:31.730Z,1.19
2023-03-29T05:03:04.462Z,1.21
2023-03-29T05:05:36.468Z,1.28
2023-03-29T05:08:09.444Z,1.26
2023-03-29T05:10:41.455Z,1.37
2023-03-29T05:13:12.966Z,1.39
2023-03-29T05:15:44.512Z,1.36
2023-03-29T05:18:16.009Z,1.47
2023-03-29T05:20:47.530Z,1.53
2023-03-29T05:23:19.066Z,1.66
2023-03-29T05:25:50.881Z,1.73
2023-03-29T05:28:22.488Z,1.74
2023-03-29T05:30:54.792Z,1.78
2023-03-29T05:33:26.302Z,1.91
2023-03-29T05:35:57.845Z,1.98
2023-03-29T05:38:30.162Z,2.17
2023-03-29T05:41:01.920Z,2.25
2023-03-29T05:43:33.700Z,2.36
2023-03-29T05:46:06.487Z,2.35
2023-03-29T05:48:38.313Z,2.44
2023-03-29T05:51:09.839Z,2.39
2023-03-29T05:53:41.702Z,2.49
2023-03-29T05:56:16.225Z,2.48
2023-03-29T05:58:50.437Z,2.50
2023-03-29T06:01:22.877Z,2.59
2023-03-29T06:03:54.732Z,2.48
2023-03-29T06:06:26.770Z,2.63
2023-03-29T06:08:59.098Z,2.68
2023-03-29T06:11:31.941Z,2.73
2023-03-29T06:14:03.633Z,2.63
2023-03-29T06:16:36.333Z,2.87
2023-03-29T06:19:08.268Z,3.00
2023-03-29T06:21:39.775Z,3.28
2023-03-29T06:24:11.640Z,3.17
2023-03-29T06:26:43.180Z,3.45
2023-03-29T06:29:15.086Z,3.36
2023-03-29T06:31:46.705Z,3.58
2023-03-29T06:34:18.691Z,3.49
2023-03-29T06:36:51.065Z,3.41
2023-03-29T06:39:22.627Z,3.47
2023-03-29T06:41:55.466Z,3.46
2023-03-29T06:44:28.402Z,3.54
2023-03-29T06:46:59.931Z,3.66
2023-03-29T06:49:33.296Z,3.42
2023-03-29T06:52:04.808Z,3.70
2023-03-29T06:54:36.640Z,3.58
2023-03-29T06:57:08.251Z,3.62
2023-03-29T06:59:40.119Z,3.93
2023-03-29T07:02:12.438Z,4.20
2023-03-29T07:04:44.933Z,4.44
2023-03-29T07:07:22.515Z,4.23
2023-03-29T07:09:54.098Z,4.24
2023-03-29T07:12:26.402Z,4.17
2023-03-29T07:14:58.492Z,4.22
2023-03-29T07:17:30.082Z,4.32
2023-03-29T07:20:02.468Z,4.49
2023-03-29T07:22:34.012Z,4.46
2023-03-29T07:25:05.858Z,4.34
2023-03-29T07:27:37.756Z,4.61
2023-03-29T07:30:12.483Z,4.58
2023-03-29T07:32:44.595Z,4.52
2023-03-29T07:35:17.570Z,4.55
2023-03-29T07:37:49.061Z,4.73
2023-03-29T07:40:24.231Z,5.39
2023-03-29T07:42:56.730Z,5.54
2023-03-29T07:45:29.364Z,5.43
2023-03-29T07:48:01.213Z,5.26
2023-03-29T07:50:33.002Z,5.98
2023-03-29T07:53:04.518Z,5.62
2023-03-29T07:55:36.124Z,5.76
2023-03-29T07:58:07.903Z,5.72
2023-03-29T08:00:39.796Z,5.52
2023-03-29T08:03:11.712Z,6.03
2023-03-29T08:05:43.610Z,5.91
2023-03-29T08:08:15.362Z,6.22
2023-03-29T08:10:46.889Z,6.50
2023-03-29T08:13:18.411Z,6.94
2023-03-29T08:15:50.484Z,6.96
2023-03-29T08:18:21.965Z,7.11
2023-03-29T08:20:53.885Z,7.16
2023-03-29T08:23:25.549Z,7.65
2023-03-29T08:25:57.239Z,7.35
2023-03-29T08:28:29.128Z,7.09
2023-03-29T08:31:01.374Z,7.80
2023-03-29T08:33:33.096Z,7.64
2023-03-29T08:36:05.078Z,7.75
2023-03-29T08:38:36.641Z,8.10
2023-03-29T08:41:09.194Z,8.64
2023-03-29T08:43:40.747Z,8.80
2023-03-29T08:46:12.680Z,8.67
2023-03-29T08:48:44.300Z,8.85
2023-03-29T08:51:16.065Z,8.63
2023-03-29T08:53:47.648Z,8.35
2023-03-29T08:56:19.618Z,8.81
2023-03-29T08:58:51.120Z,8.39
2023-03-29T09:01:23.101Z,8.33
2023-03-29T09:03:54.675Z,8.92
2023-03-29T09:06:26.812Z,9.14
2023-03-29T09:08:58.401Z,9.75
2023-03-29T09:11:29.925Z,10.15
2023-03-29T09:14:01.441Z,11.11
2023-03-29T09:16:33.022Z,9.98
2023-03-29T09:19:04.576Z,9.84
2023-03-29T09:21:36.956Z,10.88
2023-03-29T09:24:08.605Z,10.52
2023-03-29T09:26:41.006Z,10.27
2023-03-29T09:29:13.121Z,10.20
2023-03-29T09:31:45.071Z,10.63
2023-03-29T09:34:17.702Z,11.06
2023-03-29T09:36:49.590Z,11.50
2023-03-29T09:39:21.212Z,12.24
2023-03-29T09:41:52.765Z,10.96
2023-03-29T09:44:30.724Z,10.57
2023-03-29T09:47:03.298Z,10.79
2023-03-29T09:49:34.810Z,10.80
2023-03-29T09:52:06.968Z,10.68
2023-03-29T09:54:38.492Z,11.18
2023-03-29T09:57:10.084Z,10.98
2023-03-29T09:59:41.637Z,12.76
2023-03-29T10:02:13.875Z,12.89
2023-03-29T10:04:45.372Z,12.46
2023-03-29T10:07:18.152Z,11.71
2023-03-29T10:09:50.534Z,11.94
2023-03-29T10:12:23.437Z,11.72
2023-03-29T10:14:55.120Z,11.71
2023-03-29T10:17:28.296Z,12.27
2023-03-29T10:20:01.563Z,13.28
2023-03-29T10:22:37.988Z,11.01
2023-03-29T10:25:09.712Z,10.81
2023-03-29T10:27:41.613Z,11.59
2023-03-29T10:30:13.235Z,12.44
2023-03-29T10:32:44.979Z,12.03
2023-03-29T10:35:16.855Z,11.73
2023-03-29T10:37:48.373Z,12.09
2023-03-29T10:40:21.850Z,12.96
2023-03-29T10:42:57.773Z,13.15
2023-03-29T10:45:29.760Z,12.89
2023-03-29T10:48:01.422Z,11.93
2023-03-29T10:50:37.185Z,11.93
2023-03-29T10:53:08.718Z,12.97
2023-03-29T10:55:41.346Z,13.37
2023-03-29T10:58:13.432Z,12.55
2023-03-29T11:00:44.954Z,12.49
2023-03-29T11:03:18.109Z,12.10
2023-03-29T11:05:51.430Z,11.84
2023-03-29T11:08:22.918Z,12.08
2023-03-29T11:10:54.502Z,11.95
2023-03-29T11:13:26.024Z,12.86
2023-03-29T11:15:57.617Z,12.52
2023-03-29T11:18:29.206Z,12.03
2023-03-29T11:21:00.916Z,11.78
2023-03-29T11:23:32.553Z,11.69
2023-03-29T11:26:04.460Z,12.16
2023-03-29T11:28:36.297Z,11.38
2023-03-29T11:31:08.224Z,11.59
2023-03-29T11:33:39.762Z,11.70
2023-03-29T11:36:11.698Z,11.99
2023-03-29T11:38:45.186Z,11.62
2023-03-29T11:41:17.724Z,11.97
2023-03-29T11:43:49.293Z,12.05
2023-03-29T11:46:21.263Z,12.12
2023-03-29T11:48:52.934Z,11.93
2023-03-29T11:51:24.814Z,11.44
2023-03-29T11:53:56.933Z,12.01
2023-03-29T11:56:29.633Z,11.86
2023-03-29T11:59:01.442Z,13.22
2023-03-29T12:01:33.282Z,13.14
2023-03-29T12:04:04.935Z,13.27
2023-03-29T12:06:37.284Z,13.13
2023-03-29T12:09:08.768Z,12.97
2023-03-29T12:11:40.882Z,13.00
2023-03-29T12:14:12.360Z,12.72
2023-03-29T12:16:43.933Z,12.36
2023-03-29T12:19:16.486Z,13.06
2023-03-29T12:21:48.278Z,13.08
2023-03-29T12:24:19.806Z,12.96
2023-03-29T12:26:52.083Z,12.01
2023-03-29T12:29:23.584Z,12.15
2023-03-29T12:31:55.196Z,12.19
2023-03-29T12:34:26.872Z,12.11
2023-03-29T12:37:00.474Z,11.73
2023-03-29T12:39:33.327Z,11.58
2023-03-29T12:42:05.179Z,11.63
2023-03-29T12:44:36.764Z,11.98
2023-03-29T12:47:08.874Z,12.34
2023-03-29T12:49:40.885Z,12.83
2023-03-29T12:52:12.849Z,12.02
2023-03-29T12:54:44.366Z,11.83
2023-03-29T12:57:16.204Z,12.65
2023-03-29T12:59:47.720Z,11.78
2023-03-29T13:02:19.314Z,12.68
2023-03-29T13:04:51.103Z,13.41
2023-03-29T13:07:23.064Z,12.90
2023-03-29T13:09:54.706Z,12.99
2023-03-29T13:12:32.166Z,12.11
2023-03-29T13:15:05.453Z,12.03
2023-03-29T13:17:37.393Z,12.00
2023-03-29T13:20:09.403Z,12.27
2023-03-29T13:22:41.189Z,12.05
2023-03-29T13:25:12.720Z,12.18
2023-03-29T13:27:44.272Z,11.84
2023-03-29T13:30:15.784Z,12.00
2023-03-29T13:32:47.412Z,11.48
2023-03-29T13:35:19.057Z,12.06
2023-03-29T13:37:53.168Z,11.72
2023-03-29T13:40:24.717Z,11.36
2023-03-29T13:42:56.264Z,11.59
2023-03-29T13:45:27.765Z,11.41
2023-03-29T13:48:05.142Z,11.39
2023-03-29T13:50:37.197Z,11.11
2023-03-29T13:53:09.352Z,11.49
2023-03-29T13:55:40.865Z,12.12
2023-03-29T13:58:12.678Z,11.79
2023-03-29T14:00:44.220Z,11.78
2023-03-29T14:03:16.409Z,11.34
2023-03-29T14:05:47.953Z,11.78
2023-03-29T14:08:19.467Z,12.11
2023-03-29T14:10:51.229Z,12.18
2023-03-29T14:13:22.898Z,12.20
2023-03-29T14:15:54.794Z,11.79
2023-03-29T14:18:26.897Z,11.42
2023-03-29T14:20:58.398Z,11.17
2023-03-29T14:23:33.344Z,10.71
2023-03-29T14:26:05.460Z,10.55
2023-03-29T14:28:37.898Z,10.93
2023-03-29T14:31:09.621Z,10.90
2023-03-29T14:33:41.889Z,10.90
2023-03-29T14:36:14.147Z,10.77
2023-03-29T14:38:46.263Z,10.89
2023-03-29T14:41:18.098Z,10.90
2023-03-29T14:43:49.623Z,11.02
2023-03-29T14:46:21.210Z,10.86
2023-03-29T14:48:53.075Z,10.96
2023-03-29T14:51:30.204Z,10.96
2023-03-29T14:54:02.879Z,10.93
2023-03-29T14:56:34.408Z,10.84
2023-03-29T14:59:05.976Z,11.24
2023-03-29T15:01:37.543Z,11.34
2023-03-29T15:04:09.216Z,11.34
2023-03-29T15:06:41.315Z,11.11
2023-03-29T15:09:12.861Z,11.25
2023-03-29T15:11:44.413Z,11.30
2023-03-29T15:14:16.046Z,11.60
2023-03-29T15:16:47.916Z,11.26
2023-03-29T15:19:19.549Z,10.98
2023-03-29T15:21:51.488Z,10.99
2023-03-29T15:24:23.092Z,11.22
2023-03-29T15:26:54.657Z,11.12
2023-03-29T15:29:26.377Z,11.01
2023-03-29T15:31:59.036Z,10.80
2023-03-29T15:34:30.816Z,11.01
2023-03-29T15:37:02.583Z,11.08
2023-03-29T15:39:34.934Z,11.30
2023-03-29T15:42:06.958Z,11.42
2023-03-29T15:44:38.474Z,11.56
2023-03-29T15:47:10.197Z,11.47
2023-03-29T15:49:41.943Z,11.57
2023-03-29T15:52:13.512Z,11.68
2023-03-29T15:54:45.073Z,11.48
2023-03-29T15:57:16.951Z,11.69
2023-03-29T15:59:48.623Z,11.47
2023-03-29T16:02:22.074Z,11.39
2023-03-29T16:04:53.665Z,11.22
2023-03-29T16:07:25.374Z,11.04
2023-03-29T16:09:57.827Z,11.22
2023-03-29T16:12:29.717Z,10.93
2023-03-29T16:15:02.302Z,10.84
2023-03-29T16:17:34.360Z,10.83
2023-03-29T16:20:06.042Z,10.93
2023-03-29T16:22:37.876Z,10.81
2023-03-29T16:25:09.475Z,10.71
2023-03-29T16:27:41.056Z,10.72
2023-03-29T16:30:12.656Z,10.74
2023-03-29T16:32:44.600Z,10.65
2023-03-29T16:35:16.267Z,10.61
2023-03-29T16:37:48.134Z,10.59
2023-03-29T16:40:21.009Z,9.48
2023-03-29T16:42:52.859Z,10.55
2023-03-29T16:45:24.386Z,10.41
2023-03-29T16:47:56.180Z,10.40
2023-03-29T16:50:27.781Z,10.45
2023-03-29T16:52:59.393Z,10.41
2023-03-29T16:55:30.921Z,10.38
2023-03-29T16:58:02.709Z,10.30
2023-03-29T17:00:34.319Z,10.37
2023-03-29T17:03:07.096Z,10.37
2023-03-29T17:05:41.581Z,10.42
2023-03-29T17:08:13.673Z,10.41
2023-03-29T17:10:45.214Z,10.34
2023-03-29T17:13:17.054Z,10.34
2023-03-29T17:15:48.607Z,10.32
2023-03-29T17:18:20.569Z,10.33
2023-03-29T17:20:52.090Z,10.34
2023-03-29T17:23:24.021Z,10.30
2023-03-29T17:25:55.974Z,10.29
2023-03-29T17:28:27.804Z,10.32
2023-03-29T17:30:59.468Z,10.30
2023-03-29T17:33:31.505Z,10.34
2023-03-29T17:36:03.406Z,10.36
2023-03-29T17:38:35.572Z,10.25
2023-03-29T17:41:08.230Z,10.17
2023-03-29T17:43:40.200Z,10.11
2023-03-29T17:46:11.895Z,10.13
2023-03-29T17:48:43.861Z,10.10
2023-03-29T17:51:15.374Z,10.10
2023-03-29T17:53:47.308Z,10.07
2023-03-29T17:56:20.245Z,10.10
2023-03-29T17:58:52.327Z,10.05
2023-03-29T18:01:23.909Z,10.01
2023-03-29T18:03:55.482Z,10.03
2023-03-29T18:06:27.007Z,9.99
2023-03-29T18:09:01.397Z,9.95
2023-03-29T18:11:33.029Z,9.96
2023-03-29T18:14:05.268Z,9.97
2023-03-29T18:16:36.842Z,9.99
2023-03-29T18:19:10.702Z,9.99
2023-03-29T18:21:42.256Z,9.96
2023-03-29T18:24:14.133Z,9.98
2023-03-29T18:26:45.716Z,9.91
2023-03-29T18:29:17.746Z,9.90
2023-03-29T18:31:49.318Z,9.92
2023-03-29T18:34:22.098Z,9.91
2023-03-29T18:36:53.662Z,9.84
2023-03-29T18:39:25.533Z,9.88
2023-03-29T18:41:57.069Z,9.89
2023-03-29T18:44:28.694Z,9.80
2023-03-29T18:47:00.354Z,9.68
2023-03-29T18:49:32.586Z,9.73
2023-03-29T18:52:05.733Z,9.72
2023-03-29T18:54:37.489Z,9.74
2023-03-29T18:57:09.084Z,9.72
2023-03-29T18:59:41.088Z,9.70
2023-03-29T19:02:12.805Z,9.64
2023-03-29T19:04:44.694Z,9.66
2023-03-29T19:07:17.750Z,9.63
2023-03-29T19:09:49.642Z,9.56
2023-03-29T19:12:21.141Z,9.58
2023-03-29T19:14:52.983Z,9.56
2023-03-29T19:17:24.525Z,9.56
2023-03-29T19:19:56.744Z,9.62
2023-03-29T19:22:28.230Z,9.63
2023-03-29T19:26:43.897Z,9.57
2023-03-29T19:29:15.788Z,9.59
2023-03-29T19:31:47.437Z,9.50
2023-03-29T19:34:19.415Z,9.49
2023-03-29T19:36:50.895Z,9.50
2023-03-29T19:39:22.717Z,9.49
2023-03-29T19:41:54.185Z,9.49
2023-03-29T19:44:26.101Z,9.55
2023-03-29T19:46:57.666Z,9.51
2023-03-29T19:49:29.518Z,9.50
2023-03-29T19:52:00.986Z,9.50
2023-03-29T19:54:32.479Z,9.50
2023-03-29T19:57:04.003Z,9.54
2023-03-29T19:59:35.879Z,9.58
2023-03-29T20:02:07.375Z,9.55
2023-03-29T20:04:39.088Z,9.62
2023-03-29T20:07:10.624Z,9.62
2023-03-29T20:09:45.068Z,9.61
2023-03-29T20:12:16.813Z,9.60
2023-03-29T20:14:48.338Z,9.65
2023-03-29T20:17:19.788Z,9.67
2023-03-29T20:19:51.571Z,9.62
2023-03-29T20:22:23.048Z,9.60
2023-03-29T20:24:54.547Z,9.59
2023-03-29T20:27:26.015Z,9.60
2023-03-29T20:29:57.496Z,9.54
2023-03-29T20:32:29.032Z,9.53
2023-03-29T20:35:00.568Z,9.46
2023-03-29T20:37:32.076Z,9.48
2023-03-29T20:40:03.932Z,9.48
2023-03-29T20:42:35.391Z,9.47
2023-03-29T20:45:07.073Z,9.48
2023-03-29T20:47:38.582Z,9.38
2023-03-29T20:50:10.381Z,9.36
2023-03-29T20:52:41.862Z,9.33
2023-03-29T20:55:13.753Z,9.30
2023-03-29T20:57:45.216Z,9.31
2023-03-29T21:00:16.877Z,9.37
2023-03-29T21:02:48.456Z,9.37
2023-03-29T21:05:20.322Z,9.36
2023-03-29T21:07:51.841Z,9.32
2023-03-29T21:10:23.681Z,9.28
2023-03-29T21:12:55.155Z,9.26
2023-03-29T21:15:26.654Z,9.29
2023-03-29T21:17:58.249Z,9.32
2023-03-29T21:20:30.097Z,9.33
2023-03-29T21:23:01.564Z,9.33
2023-03-29T21:25:33.321Z,9.32
2023-03-29T21:28:04.794Z,9.29
2023-03-29T21:30:36.644Z,9.27
2023-03-29T21:33:08.129Z,9.27
2023-03-29T21:35:39.931Z,9.26
2023-03-29T21:38:11.431Z,9.27
2023-03-29T21:40:42.913Z,9.24
2023-03-29T21:43:14.373Z,9.26
2023-03-29T21:45:45.844Z,9.33
2023-03-29T21:48:17.337Z,9.33
2023-03-29T21:50:48.831Z,9.26
2023-03-29T21:53:20.310Z,9.21
2023-03-29T21:55:52.102Z,9.24
2023-03-29T21:58:23.564Z,9.22
2023-03-29T22:00:55.124Z,9.23
2023-03-29T22:03:26.644Z,9.21
2023-03-29T22:05:58.169Z,9.13
2023-03-29T22:08:29.665Z,9.13
2023-03-29T22:11:01.288Z,9.09
2023-03-29T22:13:32.847Z,9.09
2023-03-29T22:16:04.447Z,9.10
2023-03-29T22:18:35.991Z,9.16
2023-03-29T22:21:07.779Z,9.21
2023-03-29T22:23:39.252Z,9.15
2023-03-29T22:26:11.106Z,9.15
2023-03-29T22:28:42.596Z,9.17
2023-03-29T22:31:14.412Z,9.18
2023-03-29T22:33:45.912Z,9.11
2023-03-29T22:36:17.628Z,9.15
2023-03-29T22:38:49.153Z,9.21
2023-03-29T22:41:20.943Z,9.21
2023-03-29T22:43:52.448Z,9.14
2023-03-29T22:46:24.359Z,9.14
2023-03-29T22:48:55.873Z,9.15
2023-03-29T22:51:27.448Z,9.22
2023-03-29T22:53:59.016Z,9.15
2023-03-29T22:56:30.626Z,9.12
2023-03-29T22:59:02.478Z,9.14
2023-03-29T23:01:34.138Z,9.18
2023-03-29T23:04:05.919Z,9.20
2023-03-29T23:06:37.389Z,9.22
2023-03-29T23:09:08.991Z,9.20
2023-03-29T23:11:40.453Z,9.27
2023-03-29T23:14:11.972Z,7.97
2023-03-29T23:16:43.458Z,9.30
2023-03-29T23:19:15.245Z,9.31
2023-03-29T23:21:46.740Z,9.30
2023-03-29T23:24:19.173Z,9.31
2023-03-29T23:26:50.807Z,9.31
2023-03-29T23:29:22.771Z,9.32
2023-03-29T23:31:54.309Z,9.39
2023-03-29T23:34:26.153Z,9.34
2023-03-29T23:36:57.619Z,9.37
2023-03-29T23:39:29.408Z,9.36
2023-03-29T23:42:00.887Z,9.30
2023-03-29T23:44:32.388Z,9.32
2023-03-29T23:47:03.879Z,9.33
2023-03-29T23:49:35.788Z,9.32
2023-03-29T23:52:07.285Z,9.36
2023-03-29T23:54:39.086Z,9.36
2023-03-29T23:57:10.673Z,9.32
2023-03-29T23:59:42.560Z,9.29
